sensor_id;sensor_type;location;lat;lon;timestamp;P1;P2;P0
49343;PMS5003;35210;41.606;-87.602;2023-08-06T00:00:29;17.00;15.60;11.60
49343;PMS5003;35210;41.606;-87.602;2023-08-06T00:02:57;18.00;17.80;12.00
49343;PMS5003;35210;41.606;-87.602;2023-08-06T00:05:25;20.40;18.80;12.00
49343;PMS5003;35210;41.606;-87.602;2023-08-06T00:07:54;19.00;17.20;12.00
49343;PMS5003;35210;41.606;-87.602;2023-08-06T00:10:23;19.40;16.40;11.60
49343;PMS5003;35210;41.606;-87.602;2023-08-06T00:12:51;19.00;15.80;11.00
49343;PMS5003;35210;41.606;-87.602;2023-08-06T00:15:19;16.60;15.40;10.60
49343;PMS5003;35210;41.606;-87.602;2023-08-06T00:17:47;18.20;16.40;10.60
49343;PMS5003;35210;41.606;-87.602;2023-08-06T00:20:15;17.00;13.40;8.60
49343;PMS5003;35210;41.606;-87.602;2023-08-06T00:22:44;19.00;18.60;12.00
49343;PMS5003;35210;41.606;-87.602;2023-08-06T00:25:13;22.00;17.60;12.20
49343;PMS5003;35210;41.606;-87.602;2023-08-06T00:27:42;22.40;20.20;12.80
49343;PMS5003;35210;41.606;-87.602;2023-08-06T00:30:11;23.00;19.80;13.40
49343;PMS5003;35210;41.606;-87.602;2023-08-06T00:32:39;21.80;21.80;14.00
49343;PMS5003;35210;41.606;-87.602;2023-08-06T00:35:08;19.40;19.40;13.80
49343;PMS5003;35210;41.606;-87.602;2023-08-06T00:37:36;20.20;18.20;13.20
49343;PMS5003;35210;41.606;-87.602;2023-08-06T00:40:06;27.00;21.80;15.00
49343;PMS5003;35210;41.606;-87.602;2023-08-06T00:42:36;28.60;23.20;15.00
49343;PMS5003;35210;41.606;-87.602;2023-08-06T00:45:04;22.60;21.40;14.60
49343;PMS5003;35210;41.606;-87.602;2023-08-06T00:47:33;22.40;21.00;15.00
49343;PMS5003;35210;41.606;-87.602;2023-08-06T00:50:02;20.20;20.20;12.60
49343;PMS5003;35210;41.606;-87.602;2023-08-06T00:52:32;17.20;16.60;12.00
49343;PMS5003;35210;41.606;-87.602;2023-08-06T00:55:00;20.00;18.80;12.40
49343;PMS5003;35210;41.606;-87.602;2023-08-06T00:57:29;18.80;16.60;12.00
49343;PMS5003;35210;41.606;-87.602;2023-08-06T00:59:59;14.60;14.00;11.40
49343;PMS5003;35210;41.606;-87.602;2023-08-06T01:02:27;20.60;20.20;13.40
49343;PMS5003;35210;41.606;-87.602;2023-08-06T01:04:55;17.60;16.60;12.40
49343;PMS5003;35210;41.606;-87.602;2023-08-06T01:07:28;22.60;21.20;14.40
49343;PMS5003;35210;41.606;-87.602;2023-08-06T01:10:23;21.40;19.60;13.20
49343;PMS5003;35210;41.606;-87.602;2023-08-06T01:13:04;20.40;18.80;12.00
49343;PMS5003;35210;41.606;-87.602;2023-08-06T01:15:41;22.40;22.00;14.00
49343;PMS5003;35210;41.606;-87.602;2023-08-06T01:18:13;20.00;17.80;12.00
49343;PMS5003;35210;41.606;-87.602;2023-08-06T01:20:45;17.60;17.20;9.60
49343;PMS5003;35210;41.606;-87.602;2023-08-06T01:23:13;22.40;19.60;12.60
49343;PMS5003;35210;41.606;-87.602;2023-08-06T01:25:43;21.20;20.60;12.60
49343;PMS5003;35210;41.606;-87.602;2023-08-06T01:28:18;17.80;16.00;11.40
49343;PMS5003;35210;41.606;-87.602;2023-08-06T01:30:50;17.80;15.00;12.00
49343;PMS5003;35210;41.606;-87.602;2023-08-06T01:33:22;20.00;19.20;12.60
49343;PMS5003;35210;41.606;-87.602;2023-08-06T01:35:52;19.20;18.60;13.20
49343;PMS5003;35210;41.606;-87.602;2023-08-06T01:38:22;18.40;18.40;11.00
49343;PMS5003;35210;41.606;-87.602;2023-08-06T01:40:53;20.80;19.00;13.40
49343;PMS5003;35210;41.606;-87.602;2023-08-06T01:43:22;18.20;17.00;11.00
49343;PMS5003;35210;41.606;-87.602;2023-08-06T01:45:50;23.20;22.80;14.40
49343;PMS5003;35210;41.606;-87.602;2023-08-06T01:48:18;21.00;19.00;13.20
49343;PMS5003;35210;41.606;-87.602;2023-08-06T01:50:46;19.20;18.40;13.00
49343;PMS5003;35210;41.606;-87.602;2023-08-06T01:53:16;17.80;17.00;13.00
49343;PMS5003;35210;41.606;-87.602;2023-08-06T01:55:47;17.00;14.80;9.20
49343;PMS5003;35210;41.606;-87.602;2023-08-06T01:58:16;20.40;19.00;12.20
49343;PMS5003;35210;41.606;-87.602;2023-08-06T02:00:44;20.00;17.80;12.20
49343;PMS5003;35210;41.606;-87.602;2023-08-06T02:03:12;24.20;18.60;12.40
49343;PMS5003;35210;41.606;-87.602;2023-08-06T02:05:44;18.40;18.00;12.40
49343;PMS5003;35210;41.606;-87.602;2023-08-06T02:08:12;19.60;17.20;11.20
49343;PMS5003;35210;41.606;-87.602;2023-08-06T02:10:41;16.00;15.00;10.80
49343;PMS5003;35210;41.606;-87.602;2023-08-06T02:13:09;18.80;18.80;12.40
49343;PMS5003;35210;41.606;-87.602;2023-08-06T02:15:41;23.20;19.40;13.00
49343;PMS5003;35210;41.606;-87.602;2023-08-06T02:18:10;20.80;16.20;10.00
49343;PMS5003;35210;41.606;-87.602;2023-08-06T02:20:38;21.80;19.20;13.20
49343;PMS5003;35210;41.606;-87.602;2023-08-06T02:23:07;22.80;20.40;13.60
49343;PMS5003;35210;41.606;-87.602;2023-08-06T02:25:35;23.60;20.00;14.00
49343;PMS5003;35210;41.606;-87.602;2023-08-06T02:28:05;21.60;20.60;14.40
49343;PMS5003;35210;41.606;-87.602;2023-08-06T02:30:34;26.60;23.80;16.20
49343;PMS5003;35210;41.606;-87.602;2023-08-06T02:33:03;22.60;19.80;13.00
49343;PMS5003;35210;41.606;-87.602;2023-08-06T02:35:32;15.40;12.60;6.20
49343;PMS5003;35210;41.606;-87.602;2023-08-06T02:38:00;22.40;20.60;14.80
49343;PMS5003;35210;41.606;-87.602;2023-08-06T02:40:28;21.80;19.60;14.40
49343;PMS5003;35210;41.606;-87.602;2023-08-06T02:42:56;7.80;7.80;7.80
49343;PMS5003;35210;41.606;-87.602;2023-08-06T02:45:26;23.80;18.80;11.20
49343;PMS5003;35210;41.606;-87.602;2023-08-06T02:47:54;22.20;21.80;14.40
49343;PMS5003;35210;41.606;-87.602;2023-08-06T02:50:23;20.20;20.20;14.80
49343;PMS5003;35210;41.606;-87.602;2023-08-06T02:52:51;22.80;21.00;13.40
49343;PMS5003;35210;41.606;-87.602;2023-08-06T02:55:20;20.80;18.60;13.00
49343;PMS5003;35210;41.606;-87.602;2023-08-06T02:57:48;25.20;20.40;14.00
49343;PMS5003;35210;41.606;-87.602;2023-08-06T03:00:17;21.80;19.60;13.60
49343;PMS5003;35210;41.606;-87.602;2023-08-06T03:02:47;20.40;20.40;13.60
49343;PMS5003;35210;41.606;-87.602;2023-08-06T03:05:15;26.60;21.60;12.40
49343;PMS5003;35210;41.606;-87.602;2023-08-06T03:07:43;19.80;19.20;11.40
49343;PMS5003;35210;41.606;-87.602;2023-08-06T03:10:11;20.40;17.80;13.60
49343;PMS5003;35210;41.606;-87.602;2023-08-06T03:12:40;27.80;25.80;14.40
49343;PMS5003;35210;41.606;-87.602;2023-08-06T03:15:08;25.20;23.80;17.00
49343;PMS5003;35210;41.606;-87.602;2023-08-06T03:17:37;29.00;24.80;16.00
49343;PMS5003;35210;41.606;-87.602;2023-08-06T03:20:08;22.20;21.20;12.40
49343;PMS5003;35210;41.606;-87.602;2023-08-06T03:22:36;22.00;20.20;13.40
49343;PMS5003;35210;41.606;-87.602;2023-08-06T03:25:05;27.00;24.80;16.60
49343;PMS5003;35210;41.606;-87.602;2023-08-06T03:27:33;26.60;24.40;16.40
49343;PMS5003;35210;41.606;-87.602;2023-08-06T03:30:01;27.20;25.60;17.40
49343;PMS5003;35210;41.606;-87.602;2023-08-06T03:32:30;27.00;25.80;17.40
49343;PMS5003;35210;41.606;-87.602;2023-08-06T03:34:58;30.80;28.00;16.20
49343;PMS5003;35210;41.606;-87.602;2023-08-06T03:37:28;29.20;24.60;13.80
49343;PMS5003;35210;41.606;-87.602;2023-08-06T03:39:56;22.40;21.00;18.20
49343;PMS5003;35210;41.606;-87.602;2023-08-06T03:42:25;30.00;27.60;17.60
49343;PMS5003;35210;41.606;-87.602;2023-08-06T03:44:53;27.80;24.20;16.60
49343;PMS5003;35210;41.606;-87.602;2023-08-06T03:47:21;34.40;30.60;18.40
49343;PMS5003;35210;41.606;-87.602;2023-08-06T03:49:50;24.00;23.60;17.80
49343;PMS5003;35210;41.606;-87.602;2023-08-06T03:52:19;33.00;27.20;16.20
49343;PMS5003;35210;41.606;-87.602;2023-08-06T03:54:49;26.00;24.00;16.60
49343;PMS5003;35210;41.606;-87.602;2023-08-06T03:57:17;25.60;25.20;15.60
49343;PMS5003;35210;41.606;-87.602;2023-08-06T03:59:45;19.80;19.80;13.80
49343;PMS5003;35210;41.606;-87.602;2023-08-06T04:02:14;24.80;23.20;16.20
49343;PMS5003;35210;41.606;-87.602;2023-08-06T04:04:42;21.40;19.60;13.00
49343;PMS5003;35210;41.606;-87.602;2023-08-06T04:07:10;25.20;23.20;16.00
49343;PMS5003;35210;41.606;-87.602;2023-08-06T04:09:52;25.80;24.00;16.20
49343;PMS5003;35210;41.606;-87.602;2023-08-06T04:12:21;28.60;26.80;15.40
49343;PMS5003;35210;41.606;-87.602;2023-08-06T04:14:50;30.00;26.40;17.00
49343;PMS5003;35210;41.606;-87.602;2023-08-06T04:17:18;27.80;24.80;16.80
49343;PMS5003;35210;41.606;-87.602;2023-08-06T04:19:47;30.20;27.40;17.20
49343;PMS5003;35210;41.606;-87.602;2023-08-06T04:22:16;25.00;25.00;19.20
49343;PMS5003;35210;41.606;-87.602;2023-08-06T04:24:44;24.20;23.80;14.20
49343;PMS5003;35210;41.606;-87.602;2023-08-06T04:27:15;28.60;25.40;17.00
49343;PMS5003;35210;41.606;-87.602;2023-08-06T04:29:45;30.40;26.80;16.80
49343;PMS5003;35210;41.606;-87.602;2023-08-06T04:32:13;20.20;19.80;15.20
49343;PMS5003;35210;41.606;-87.602;2023-08-06T04:34:41;27.60;24.00;17.00
49343;PMS5003;35210;41.606;-87.602;2023-08-06T04:37:09;23.80;23.60;15.60
49343;PMS5003;35210;41.606;-87.602;2023-08-06T04:39:37;27.40;24.40;17.00
49343;PMS5003;35210;41.606;-87.602;2023-08-06T04:42:06;26.60;24.20;16.20
49343;PMS5003;35210;41.606;-87.602;2023-08-06T04:44:38;24.20;22.80;16.60
49343;PMS5003;35210;41.606;-87.602;2023-08-06T04:47:06;22.60;21.00;14.80
49343;PMS5003;35210;41.606;-87.602;2023-08-06T04:49:34;23.80;22.60;15.40
49343;PMS5003;35210;41.606;-87.602;2023-08-06T04:52:03;25.20;23.20;15.20
49343;PMS5003;35210;41.606;-87.602;2023-08-06T04:54:31;23.40;22.40;16.40
49343;PMS5003;35210;41.606;-87.602;2023-08-06T04:56:59;35.80;30.20;19.80
49343;PMS5003;35210;41.606;-87.602;2023-08-06T04:59:28;27.00;24.00;16.00
49343;PMS5003;35210;41.606;-87.602;2023-08-06T05:01:57;25.80;25.60;17.80
49343;PMS5003;35210;41.606;-87.602;2023-08-06T05:04:25;33.00;29.00;18.60
49343;PMS5003;35210;41.606;-87.602;2023-08-06T05:06:54;32.60;30.40;19.00
49343;PMS5003;35210;41.606;-87.602;2023-08-06T05:09:22;39.00;32.80;21.60
49343;PMS5003;35210;41.606;-87.602;2023-08-06T05:11:50;42.00;34.20;22.20
49343;PMS5003;35210;41.606;-87.602;2023-08-06T05:14:18;43.20;34.40;21.60
49343;PMS5003;35210;41.606;-87.602;2023-08-06T05:16:46;42.40;36.00;22.60
49343;PMS5003;35210;41.606;-87.602;2023-08-06T05:19:15;39.60;33.60;22.40
49343;PMS5003;35210;41.606;-87.602;2023-08-06T05:21:44;40.20;35.00;21.80
49343;PMS5003;35210;41.606;-87.602;2023-08-06T05:24:12;29.40;25.80;18.00
49343;PMS5003;35210;41.606;-87.602;2023-08-06T05:26:40;30.20;26.20;17.20
49343;PMS5003;35210;41.606;-87.602;2023-08-06T05:29:09;26.00;25.00;16.40
49343;PMS5003;35210;41.606;-87.602;2023-08-06T05:31:37;25.20;23.00;17.40
49343;PMS5003;35210;41.606;-87.602;2023-08-06T05:34:05;24.40;22.20;16.80
49343;PMS5003;35210;41.606;-87.602;2023-08-06T05:36:36;27.80;24.60;15.40
49343;PMS5003;35210;41.606;-87.602;2023-08-06T05:39:04;21.40;21.20;14.00
49343;PMS5003;35210;41.606;-87.602;2023-08-06T05:41:32;23.80;23.80;15.60
49343;PMS5003;35210;41.606;-87.602;2023-08-06T05:44:00;25.60;22.80;14.60
49343;PMS5003;35210;41.606;-87.602;2023-08-06T05:46:28;20.60;20.60;16.40
49343;PMS5003;35210;41.606;-87.602;2023-08-06T05:48:56;24.40;24.40;17.40
49343;PMS5003;35210;41.606;-87.602;2023-08-06T05:51:25;22.40;21.40;15.60
49343;PMS5003;35210;41.606;-87.602;2023-08-06T05:53:55;23.60;21.40;13.20
49343;PMS5003;35210;41.606;-87.602;2023-08-06T05:56:23;25.40;23.00;14.40
49343;PMS5003;35210;41.606;-87.602;2023-08-06T05:58:51;27.40;25.20;17.00
49343;PMS5003;35210;41.606;-87.602;2023-08-06T06:01:19;25.00;25.00;17.20
49343;PMS5003;35210;41.606;-87.602;2023-08-06T06:03:48;30.00;28.20;17.60
49343;PMS5003;35210;41.606;-87.602;2023-08-06T06:06:16;30.40;28.40;16.80
49343;PMS5003;35210;41.606;-87.602;2023-08-06T06:08:44;30.40;28.60;18.60
49343;PMS5003;35210;41.606;-87.602;2023-08-06T06:11:14;29.80;28.00;18.40
49343;PMS5003;35210;41.606;-87.602;2023-08-06T06:13:42;31.80;29.40;19.40
49343;PMS5003;35210;41.606;-87.602;2023-08-06T06:16:11;25.80;25.20;16.40
49343;PMS5003;35210;41.606;-87.602;2023-08-06T06:18:39;27.80;25.80;16.80
49343;PMS5003;35210;41.606;-87.602;2023-08-06T06:21:08;27.80;26.80;17.80
49343;PMS5003;35210;41.606;-87.602;2023-08-06T06:23:37;29.40;26.20;16.40
49343;PMS5003;35210;41.606;-87.602;2023-08-06T06:26:05;35.60;31.20;19.80
49343;PMS5003;35210;41.606;-87.602;2023-08-06T06:28:35;22.60;20.40;11.00
49343;PMS5003;35210;41.606;-87.602;2023-08-06T06:31:03;24.40;24.40;16.60
49343;PMS5003;35210;41.606;-87.602;2023-08-06T06:33:31;26.80;24.60;16.80
49343;PMS5003;35210;41.606;-87.602;2023-08-06T06:35:59;33.20;29.40;17.00
49343;PMS5003;35210;41.606;-87.602;2023-08-06T06:38:29;27.60;19.60;11.00
49343;PMS5003;35210;41.606;-87.602;2023-08-06T06:40:57;25.20;24.20;16.40
49343;PMS5003;35210;41.606;-87.602;2023-08-06T06:43:25;26.60;24.00;16.40
49343;PMS5003;35210;41.606;-87.602;2023-08-06T06:45:57;24.40;24.40;15.20
49343;PMS5003;35210;41.606;-87.602;2023-08-06T06:48:25;32.40;24.40;16.80
49343;PMS5003;35210;41.606;-87.602;2023-08-06T06:50:54;35.20;30.80;19.00
49343;PMS5003;35210;41.606;-87.602;2023-08-06T06:53:22;32.80;32.20;20.40
49343;PMS5003;35210;41.606;-87.602;2023-08-06T06:55:53;31.40;28.20;20.00
49343;PMS5003;35210;41.606;-87.602;2023-08-06T06:58:21;33.40;29.40;19.40
49343;PMS5003;35210;41.606;-87.602;2023-08-06T07:00:50;34.80;30.60;18.80
49343;PMS5003;35210;41.606;-87.602;2023-08-06T07:03:20;29.20;26.20;14.00
49343;PMS5003;35210;41.606;-87.602;2023-08-06T07:05:48;33.20;30.40;19.80
49343;PMS5003;35210;41.606;-87.602;2023-08-06T07:08:17;35.80;31.00;20.20
49343;PMS5003;35210;41.606;-87.602;2023-08-06T07:10:45;30.60;26.20;18.00
49343;PMS5003;35210;41.606;-87.602;2023-08-06T07:13:13;33.00;29.20;18.80
49343;PMS5003;35210;41.606;-87.602;2023-08-06T07:15:42;26.00;23.40;17.00
49343;PMS5003;35210;41.606;-87.602;2023-08-06T07:18:10;30.80;29.60;19.20
49343;PMS5003;35210;41.606;-87.602;2023-08-06T07:20:42;35.60;30.40;19.40
49343;PMS5003;35210;41.606;-87.602;2023-08-06T07:23:15;31.80;29.00;18.80
49343;PMS5003;35210;41.606;-87.602;2023-08-06T07:25:44;31.00;26.60;17.40
49343;PMS5003;35210;41.606;-87.602;2023-08-06T07:28:15;33.00;28.80;18.20
49343;PMS5003;35210;41.606;-87.602;2023-08-06T07:30:43;27.60;24.20;14.40
49343;PMS5003;35210;41.606;-87.602;2023-08-06T07:33:15;27.40;27.40;17.40
49343;PMS5003;35210;41.606;-87.602;2023-08-06T07:35:44;23.20;20.00;10.60
49343;PMS5003;35210;41.606;-87.602;2023-08-06T07:38:14;35.40;31.00;18.80
49343;PMS5003;35210;41.606;-87.602;2023-08-06T07:41:12;30.00;28.80;18.60
49343;PMS5003;35210;41.606;-87.602;2023-08-06T07:43:41;36.00;32.00;20.40
49343;PMS5003;35210;41.606;-87.602;2023-08-06T07:46:25;27.40;27.40;19.80
49343;PMS5003;35210;41.606;-87.602;2023-08-06T07:48:57;31.40;28.00;20.20
49343;PMS5003;35210;41.606;-87.602;2023-08-06T07:51:31;29.60;25.60;21.80
49343;PMS5003;35210;41.606;-87.602;2023-08-06T07:54:05;28.80;25.80;18.00
49343;PMS5003;35210;41.606;-87.602;2023-08-06T07:56:43;31.60;28.60;18.20
49343;PMS5003;35210;41.606;-87.602;2023-08-06T07:59:12;35.80;32.80;21.40
49343;PMS5003;35210;41.606;-87.602;2023-08-06T08:01:40;37.40;33.80;20.20
49343;PMS5003;35210;41.606;-87.602;2023-08-06T08:04:08;34.20;31.00;18.00
49343;PMS5003;35210;41.606;-87.602;2023-08-06T08:06:38;33.00;31.80;18.40
49343;PMS5003;35210;41.606;-87.602;2023-08-06T08:09:06;29.80;29.80;21.00
49343;PMS5003;35210;41.606;-87.602;2023-08-06T08:11:34;35.20;31.60;21.20
49343;PMS5003;35210;41.606;-87.602;2023-08-06T08:14:03;32.80;30.00;19.20
49343;PMS5003;35210;41.606;-87.602;2023-08-06T08:16:31;30.20;29.00;19.20
49343;PMS5003;35210;41.606;-87.602;2023-08-06T08:19:00;32.80;30.40;20.20
49343;PMS5003;35210;41.606;-87.602;2023-08-06T08:21:29;36.40;30.80;18.60
49343;PMS5003;35210;41.606;-87.602;2023-08-06T08:24:00;35.80;32.40;20.60
49343;PMS5003;35210;41.606;-87.602;2023-08-06T08:26:28;35.60;31.40;20.20
49343;PMS5003;35210;41.606;-87.602;2023-08-06T08:28:56;35.80;33.60;20.20
49343;PMS5003;35210;41.606;-87.602;2023-08-06T08:31:25;37.00;33.20;21.00
49343;PMS5003;35210;41.606;-87.602;2023-08-06T08:33:54;35.00;33.60;18.00
49343;PMS5003;35210;41.606;-87.602;2023-08-06T08:36:22;41.20;32.80;20.60
49343;PMS5003;35210;41.606;-87.602;2023-08-06T08:38:50;40.00;33.80;21.40
49343;PMS5003;35210;41.606;-87.602;2023-08-06T08:41:21;29.60;28.20;17.40
49343;PMS5003;35210;41.606;-87.602;2023-08-06T08:43:49;24.40;24.40;16.20
49343;PMS5003;35210;41.606;-87.602;2023-08-06T08:46:18;31.80;27.80;18.60
49343;PMS5003;35210;41.606;-87.602;2023-08-06T08:48:46;33.80;29.80;20.60
49343;PMS5003;35210;41.606;-87.602;2023-08-06T08:51:15;32.60;30.40;19.60
49343;PMS5003;35210;41.606;-87.602;2023-08-06T08:53:45;26.00;24.60;17.20
49343;PMS5003;35210;41.606;-87.602;2023-08-06T08:56:17;29.20;25.80;18.00
49343;PMS5003;35210;41.606;-87.602;2023-08-06T08:58:47;27.80;27.80;19.00
49343;PMS5003;35210;41.606;-87.602;2023-08-06T09:01:15;22.80;21.80;16.00
49343;PMS5003;35210;41.606;-87.602;2023-08-06T09:03:44;27.80;24.60;16.80
49343;PMS5003;35210;41.606;-87.602;2023-08-06T09:06:13;22.40;22.40;14.00
49343;PMS5003;35210;41.606;-87.602;2023-08-06T09:08:47;22.20;21.40;13.60
49343;PMS5003;35210;41.606;-87.602;2023-08-06T09:11:22;25.60;24.20;15.20
49343;PMS5003;35210;41.606;-87.602;2023-08-06T09:13:53;23.80;23.80;16.60
49343;PMS5003;35210;41.606;-87.602;2023-08-06T09:16:23;26.20;23.20;15.20
49343;PMS5003;35210;41.606;-87.602;2023-08-06T09:18:51;26.00;22.80;15.60
49343;PMS5003;35210;41.606;-87.602;2023-08-06T09:21:19;22.00;19.40;13.80
49343;PMS5003;35210;41.606;-87.602;2023-08-06T09:23:47;24.40;22.40;15.00
49343;PMS5003;35210;41.606;-87.602;2023-08-06T09:26:15;23.40;22.80;14.20
49343;PMS5003;35210;41.606;-87.602;2023-08-06T09:28:44;22.80;19.80;12.80
49343;PMS5003;35210;41.606;-87.602;2023-08-06T09:31:13;20.00;17.80;10.80
49343;PMS5003;35210;41.606;-87.602;2023-08-06T09:33:41;15.60;15.20;10.00
49343;PMS5003;35210;41.606;-87.602;2023-08-06T09:36:10;18.00;16.60;11.80
49343;PMS5003;35210;41.606;-87.602;2023-08-06T09:38:39;17.40;16.20;11.00
49343;PMS5003;35210;41.606;-87.602;2023-08-06T09:41:08;16.60;16.60;11.00
49343;PMS5003;35210;41.606;-87.602;2023-08-06T09:43:40;17.40;15.20;10.00
49343;PMS5003;35210;41.606;-87.602;2023-08-06T09:46:13;12.00;10.80;7.40
49343;PMS5003;35210;41.606;-87.602;2023-08-06T09:48:44;17.20;13.60;7.60
49343;PMS5003;35210;41.606;-87.602;2023-08-06T09:51:13;10.80;10.20;7.80
49343;PMS5003;35210;41.606;-87.602;2023-08-06T09:53:42;9.40;9.40;7.20
49343;PMS5003;35210;41.606;-87.602;2023-08-06T09:56:11;11.00;9.40;7.40
49343;PMS5003;35210;41.606;-87.602;2023-08-06T09:58:41;12.60;12.00;8.00
49343;PMS5003;35210;41.606;-87.602;2023-08-06T10:01:10;12.00;11.00;7.80
49343;PMS5003;35210;41.606;-87.602;2023-08-06T10:03:41;13.20;11.40;7.20
49343;PMS5003;35210;41.606;-87.602;2023-08-06T10:06:10;12.20;12.20;8.00
49343;PMS5003;35210;41.606;-87.602;2023-08-06T10:08:38;14.00;13.00;8.00
49343;PMS5003;35210;41.606;-87.602;2023-08-06T10:11:08;13.40;13.40;9.40
49343;PMS5003;35210;41.606;-87.602;2023-08-06T10:13:38;12.20;11.00;9.00
49343;PMS5003;35210;41.606;-87.602;2023-08-06T10:16:06;16.00;15.80;9.00
49343;PMS5003;35210;41.606;-87.602;2023-08-06T10:18:37;15.80;15.80;10.40
49343;PMS5003;35210;41.606;-87.602;2023-08-06T10:21:07;15.40;14.00;10.80
49343;PMS5003;35210;41.606;-87.602;2023-08-06T10:23:36;17.40;16.60;10.40
49343;PMS5003;35210;41.606;-87.602;2023-08-06T10:26:07;18.00;16.80;11.00
49343;PMS5003;35210;41.606;-87.602;2023-08-06T10:28:36;16.20;15.00;12.40
49343;PMS5003;35210;41.606;-87.602;2023-08-06T10:31:08;16.60;14.80;10.00
49343;PMS5003;35210;41.606;-87.602;2023-08-06T10:33:44;19.00;19.00;12.40
49343;PMS5003;35210;41.606;-87.602;2023-08-06T10:36:13;18.80;17.80;11.40
49343;PMS5003;35210;41.606;-87.602;2023-08-06T10:38:46;19.40;17.20;10.00
49343;PMS5003;35210;41.606;-87.602;2023-08-06T10:41:15;19.20;15.00;10.80
49343;PMS5003;35210;41.606;-87.602;2023-08-06T10:43:46;17.20;15.40;9.60
49343;PMS5003;35210;41.606;-87.602;2023-08-06T10:46:22;15.60;15.60;10.00
49343;PMS5003;35210;41.606;-87.602;2023-08-06T10:48:55;21.20;17.60;11.00
49343;PMS5003;35210;41.606;-87.602;2023-08-06T10:51:24;17.20;17.20;11.00
49343;PMS5003;35210;41.606;-87.602;2023-08-06T10:53:53;17.80;16.40;10.00
49343;PMS5003;35210;41.606;-87.602;2023-08-06T10:56:21;19.00;17.80;12.00
49343;PMS5003;35210;41.606;-87.602;2023-08-06T10:58:54;18.40;17.40;10.80
49343;PMS5003;35210;41.606;-87.602;2023-08-06T11:01:23;18.20;17.00;10.60
49343;PMS5003;35210;41.606;-87.602;2023-08-06T11:03:51;20.00;19.00;14.00
49343;PMS5003;35210;41.606;-87.602;2023-08-06T11:06:22;19.00;19.00;13.20
49343;PMS5003;35210;41.606;-87.602;2023-08-06T11:08:52;25.60;21.40;13.20
49343;PMS5003;35210;41.606;-87.602;2023-08-06T11:11:21;18.00;15.60;11.20
49343;PMS5003;35210;41.606;-87.602;2023-08-06T11:13:50;20.20;19.40;12.80
49343;PMS5003;35210;41.606;-87.602;2023-08-06T11:16:19;18.40;17.40;12.60
49343;PMS5003;35210;41.606;-87.602;2023-08-06T11:18:50;17.20;16.80;12.00
49343;PMS5003;35210;41.606;-87.602;2023-08-06T11:21:19;24.40;20.40;13.40
49343;PMS5003;35210;41.606;-87.602;2023-08-06T11:23:50;19.60;18.40;12.80
49343;PMS5003;35210;41.606;-87.602;2023-08-06T11:26:19;20.20;19.00;13.60
49343;PMS5003;35210;41.606;-87.602;2023-08-06T11:28:47;21.20;18.60;12.00
49343;PMS5003;35210;41.606;-87.602;2023-08-06T11:31:18;20.60;18.40;12.00
49343;PMS5003;35210;41.606;-87.602;2023-08-06T11:33:47;16.00;16.00;12.00
49343;PMS5003;35210;41.606;-87.602;2023-08-06T11:36:28;20.20;19.20;12.00
49343;PMS5003;35210;41.606;-87.602;2023-08-06T11:38:58;17.80;17.80;12.20
49343;PMS5003;35210;41.606;-87.602;2023-08-06T11:41:27;17.40;17.40;11.40
49343;PMS5003;35210;41.606;-87.602;2023-08-06T11:43:56;21.40;18.60;11.00
49343;PMS5003;35210;41.606;-87.602;2023-08-06T11:46:24;18.80;16.40;10.80
49343;PMS5003;35210;41.606;-87.602;2023-08-06T11:48:52;14.80;13.20;9.00
49343;PMS5003;35210;41.606;-87.602;2023-08-06T11:51:22;21.20;18.20;11.80
49343;PMS5003;35210;41.606;-87.602;2023-08-06T11:53:53;21.20;19.20;12.80
49343;PMS5003;35210;41.606;-87.602;2023-08-06T11:56:22;21.40;19.20;12.60
49343;PMS5003;35210;41.606;-87.602;2023-08-06T11:58:51;16.40;16.40;12.00
49343;PMS5003;35210;41.606;-87.602;2023-08-06T12:01:19;21.20;19.20;14.60
49343;PMS5003;35210;41.606;-87.602;2023-08-06T12:03:47;19.80;18.80;14.00
49343;PMS5003;35210;41.606;-87.602;2023-08-06T12:06:15;19.20;19.00;13.60
49343;PMS5003;35210;41.606;-87.602;2023-08-06T12:08:43;19.00;18.60;13.00
49343;PMS5003;35210;41.606;-87.602;2023-08-06T12:11:13;20.60;17.80;12.60
49343;PMS5003;35210;41.606;-87.602;2023-08-06T12:13:41;21.20;18.20;12.60
49343;PMS5003;35210;41.606;-87.602;2023-08-06T12:16:09;21.00;21.00;13.60
49343;PMS5003;35210;41.606;-87.602;2023-08-06T12:18:39;19.40;18.00;14.00
49343;PMS5003;35210;41.606;-87.602;2023-08-06T12:21:07;22.80;20.60;14.00
49343;PMS5003;35210;41.606;-87.602;2023-08-06T12:23:35;20.60;19.80;13.20
49343;PMS5003;35210;41.606;-87.602;2023-08-06T12:26:03;20.00;20.00;13.00
49343;PMS5003;35210;41.606;-87.602;2023-08-06T12:28:33;21.80;20.20;14.20
49343;PMS5003;35210;41.606;-87.602;2023-08-06T12:31:01;22.40;19.60;11.80
49343;PMS5003;35210;41.606;-87.602;2023-08-06T12:33:30;18.20;16.00;12.20
49343;PMS5003;35210;41.606;-87.602;2023-08-06T12:35:58;16.60;16.60;9.20
49343;PMS5003;35210;41.606;-87.602;2023-08-06T12:38:26;22.40;20.00;13.40
49343;PMS5003;35210;41.606;-87.602;2023-08-06T12:40:58;21.20;20.80;14.40
49343;PMS5003;35210;41.606;-87.602;2023-08-06T12:43:26;24.40;20.00;14.00
49343;PMS5003;35210;41.606;-87.602;2023-08-06T12:45:56;19.00;19.00;12.00
49343;PMS5003;35210;41.606;-87.602;2023-08-06T12:48:24;20.20;20.20;14.40
49343;PMS5003;35210;41.606;-87.602;2023-08-06T12:50:52;25.80;22.80;13.80
49343;PMS5003;35210;41.606;-87.602;2023-08-06T12:53:20;25.40;23.20;15.60
49343;PMS5003;35210;41.606;-87.602;2023-08-06T12:55:48;19.40;19.40;12.00
49343;PMS5003;35210;41.606;-87.602;2023-08-06T12:58:16;21.20;19.00;12.60
49343;PMS5003;35210;41.606;-87.602;2023-08-06T13:00:45;22.40;18.40;13.20
49343;PMS5003;35210;41.606;-87.602;2023-08-06T13:03:14;20.80;18.20;11.40
49343;PMS5003;35210;41.606;-87.602;2023-08-06T13:05:42;24.80;22.00;13.40
49343;PMS5003;35210;41.606;-87.602;2023-08-06T13:08:10;21.20;20.00;13.40
49343;PMS5003;35210;41.606;-87.602;2023-08-06T13:10:38;26.80;24.40;16.20
49343;PMS5003;35210;41.606;-87.602;2023-08-06T13:13:07;19.60;16.40;10.00
49343;PMS5003;35210;41.606;-87.602;2023-08-06T13:15:35;19.80;19.40;13.00
49343;PMS5003;35210;41.606;-87.602;2023-08-06T13:18:04;18.00;16.80;10.20
49343;PMS5003;35210;41.606;-87.602;2023-08-06T13:20:34;20.20;18.60;11.60
49343;PMS5003;35210;41.606;-87.602;2023-08-06T13:23:05;20.40;19.00;13.40
49343;PMS5003;35210;41.606;-87.602;2023-08-06T13:25:33;23.60;20.80;14.20
49343;PMS5003;35210;41.606;-87.602;2023-08-06T13:28:02;15.40;15.40;11.40
49343;PMS5003;35210;41.606;-87.602;2023-08-06T13:30:30;19.40;19.40;14.00
49343;PMS5003;35210;41.606;-87.602;2023-08-06T13:33:00;20.40;20.40;14.40
49343;PMS5003;35210;41.606;-87.602;2023-08-06T13:35:30;23.20;19.20;12.40